aviador You're here:

LEPA Decoded Metar

PALMA DE MALLORCA in SPAIN
Report Time2017-12-15 14:00:00
UTC Time2017-12-15 14:14:43
Flight Rules vfr VFR
Wind320° at 14 Gusting to 24 kt
W.Decomp.*RWY 24: 2.7 kt HW 13.7 kt RCW
W.Rank320° ranks 13
Current wind is above 320° avg. (8.7)
Visibility9999 m
Phenomena:N/A
Clouds:Few 030 Hf
Expected CloudBase > 4,000 ft AGL from Temp-Dew spread
CeilingNone
Temp16°C (ISA +1)
Dew Point06°C (52% RH)
AAT10.1°C
QNH1007 hPa
Density Alt482 ft
Elevation26 ft
Report Wrong Elevation
Raw Report
LEPA 151400Z 32014G24KT 290V350 9999 FEW030 16/06 Q1007 NOSIG=

Extra information for LEPA:More info

Metar Taf Metar & Taf Last 4 Metars F.Rules Stats Wind Profile Meteogram Temp Stats Airport Information Weather charts Add Link Nearby VenuesMetar ALERT Operation Metar Decoded Social comments

Webcam La Seu Palma